createdAt,value
2024-01-09T00:00:39.987Z,579.05155
2024-01-09T00:05:41.484Z,566.22222
2024-01-09T00:10:42.942Z,585.66667
2024-01-09T00:15:44.384Z,566.22222
2024-01-09T00:20:46.661Z,560
2024-01-09T00:25:48.091Z,592.42105
2024-01-09T00:30:49.687Z,606.36559
2024-01-09T00:35:51.249Z,585.66667
2024-01-09T00:40:52.699Z,579.05155
2024-01-09T00:45:54.140Z,566.22222
2024-01-09T00:50:55.623Z,579.05155
2024-01-09T00:55:57.224Z,536.30769
2024-01-09T01:00:58.789Z,572.57143
2024-01-09T01:06:00.347Z,542.05825
2024-01-09T01:11:01.907Z,572.57143
2024-01-09T01:16:03.559Z,592.42105
2024-01-09T01:21:05.190Z,592.42105
2024-01-09T01:26:06.703Z,585.66667
2024-01-09T01:31:08.232Z,579.05155
2024-01-09T01:36:09.691Z,542.05825
2024-01-09T01:41:11.258Z,553.90099
2024-01-09T01:46:12.694Z,547.92157
2024-01-09T01:51:14.107Z,547.92157
2024-01-09T01:56:15.529Z,547.92157
2024-01-09T02:01:16.968Z,547.92157
2024-01-09T02:06:18.651Z,542.05825
2024-01-09T02:11:20.229Z,547.92157
2024-01-09T02:16:21.663Z,530.66667
2024-01-09T02:21:23.077Z,553.90099
2024-01-09T02:26:39.969Z,560
2024-01-09T02:31:55.189Z,560
2024-01-09T02:36:56.606Z,566.22222
2024-01-09T02:41:58.153Z,620.92308
2024-01-09T02:46:59.566Z,599.31915
2024-01-09T02:52:01.048Z,579.05155
2024-01-09T02:57:02.592Z,592.42105
2024-01-09T03:02:04.010Z,620.92308
2024-01-09T03:07:05.539Z,606.36559
2024-01-09T03:12:07.140Z,585.66667
2024-01-09T03:17:08.591Z,592.42105
2024-01-09T03:22:10.108Z,613.56522
2024-01-09T03:27:11.579Z,606.36559
2024-01-09T03:32:13.006Z,613.56522
2024-01-09T03:37:14.580Z,566.22222
2024-01-09T03:42:16.068Z,599.31915
2024-01-09T03:47:17.618Z,566.22222
2024-01-09T03:52:19.235Z,628.44444
2024-01-09T03:57:20.652Z,599.31915
2024-01-09T04:02:22.154Z,636.13483
2024-01-09T04:07:23.729Z,636.13483
2024-01-09T04:12:25.330Z,599.31915
2024-01-09T04:17:26.888Z,620.92308
2024-01-09T04:22:28.440Z,592.42105
2024-01-09T04:27:29.936Z,606.36559
2024-01-09T04:32:31.438Z,606.36559
2024-01-09T04:37:32.955Z,620.92308
2024-01-09T04:42:34.432Z,606.36559
2024-01-09T04:47:35.929Z,579.05155
2024-01-09T04:52:37.427Z,613.56522
2024-01-09T04:57:38.856Z,599.31915
2024-01-09T05:02:40.299Z,553.90099
2024-01-09T05:07:41.868Z,585.66667
2024-01-09T05:12:43.287Z,599.31915
2024-01-09T05:17:44.755Z,566.22222
2024-01-09T05:22:46.384Z,599.31915
2024-01-09T05:27:47.942Z,585.66667
2024-01-09T05:32:49.481Z,572.57143
2024-01-09T05:37:51.207Z,606.36559
2024-01-09T05:42:53.134Z,592.42105
2024-01-09T05:47:54.674Z,628.44444
2024-01-09T05:52:56.235Z,599.31915
2024-01-09T05:57:57.660Z,636.13483
2024-01-09T06:02:59.196Z,628.44444
2024-01-09T06:08:00.703Z,613.56522
2024-01-09T06:13:02.143Z,579.05155
2024-01-09T06:18:03.752Z,560
2024-01-09T06:23:05.428Z,585.66667
2024-01-09T06:28:09.755Z,599.31915
2024-01-09T06:33:12.976Z,599.31915
2024-01-09T06:38:14.574Z,613.56522
2024-01-09T06:43:16.078Z,585.66667
2024-01-09T06:48:17.696Z,592.42105
2024-01-09T06:53:19.288Z,585.66667
2024-01-09T06:58:20.762Z,606.36559
2024-01-09T07:03:22.248Z,599.31915
2024-01-09T07:08:23.790Z,599.31915
2024-01-09T07:13:25.320Z,592.42105
2024-01-09T07:18:26.867Z,613.56522
2024-01-09T07:23:28.491Z,613.56522
2024-01-09T07:28:32.515Z,613.56522
2024-01-09T07:33:34.641Z,566.22222
2024-01-09T07:38:36.176Z,566.22222
2024-01-09T07:43:37.856Z,606.36559
2024-01-09T07:48:39.424Z,599.31915
2024-01-09T07:53:40.984Z,579.05155
2024-01-09T07:58:42.643Z,579.05155
2024-01-09T08:03:44.304Z,572.57143
2024-01-09T08:08:48.929Z,566.22222
2024-01-09T08:13:52.463Z,560
2024-01-09T08:18:54.027Z,553.90099
2024-01-09T08:23:55.558Z,547.92157
2024-01-09T08:28:57.133Z,547.92157
2024-01-09T08:33:58.610Z,530.66667
2024-01-09T08:39:00.257Z,553.90099
2024-01-09T08:44:01.899Z,572.57143
2024-01-09T08:49:03.560Z,560
2024-01-09T08:54:05.143Z,560
2024-01-09T08:59:06.635Z,542.05825
2024-01-09T09:04:08.182Z,553.90099
2024-01-09T09:09:09.596Z,542.05825
2024-01-09T09:14:11.086Z,530.66667
2024-01-09T09:19:12.940Z,542.05825
2024-01-09T09:24:14.473Z,530.66667
2024-01-09T09:29:23.638Z,530.66667
2024-01-09T09:34:33.688Z,536.30769
2024-01-09T09:39:35.303Z,525.13208
2024-01-09T09:44:36.769Z,536.30769
2024-01-09T09:49:38.276Z,547.92157
2024-01-09T09:54:40.291Z,560
2024-01-09T09:59:41.823Z,530.66667
2024-01-09T10:04:43.266Z,519.70093
2024-01-09T10:09:44.738Z,542.05825
2024-01-09T10:14:46.209Z,547.92157
2024-01-09T10:19:47.978Z,560
2024-01-09T10:24:49.516Z,553.90099
2024-01-09T10:29:50.942Z,553.90099
2024-01-09T10:34:52.459Z,560
2024-01-09T10:39:53.949Z,536.30769
2024-01-09T10:44:55.530Z,536.30769
2024-01-09T10:49:57.022Z,547.92157
2024-01-09T10:54:58.526Z,566.22222
2024-01-09T10:59:59.961Z,547.92157
2024-01-09T11:05:01.759Z,560
2024-01-09T11:10:03.244Z,560
2024-01-09T11:15:04.734Z,553.90099
2024-01-09T11:20:06.251Z,547.92157
2024-01-09T11:25:07.749Z,530.66667
2024-01-09T11:30:09.329Z,514.37037
2024-01-09T11:35:10.778Z,547.92157
2024-01-09T11:40:12.221Z,530.66667
2024-01-09T11:45:13.650Z,536.30769
2024-01-09T11:50:15.139Z,530.66667
2024-01-09T11:55:16.614Z,542.05825
2024-01-09T12:00:18.079Z,542.05825
2024-01-09T12:05:19.600Z,542.05825
2024-01-09T12:10:30.288Z,530.66667
2024-01-09T12:15:34.886Z,509.13761
2024-01-09T12:20:36.574Z,514.37037
2024-01-09T12:25:38.312Z,504
2024-01-09T12:30:39.973Z,530.66667
2024-01-09T12:35:41.888Z,560
2024-01-09T12:40:43.662Z,553.90099
2024-01-09T12:45:45.161Z,530.66667
2024-01-09T12:50:47.002Z,498.95495
2024-01-09T12:55:48.460Z,514.37037
2024-01-09T13:00:50.336Z,504
2024-01-09T13:05:51.970Z,542.05825
2024-01-09T13:10:53.498Z,536.30769
2024-01-09T13:15:54.884Z,475.03448
2024-01-09T13:20:56.494Z,525.13208
2024-01-09T13:25:58.293Z,514.37037
2024-01-09T13:31:00.189Z,489.13274
2024-01-09T13:36:01.953Z,519.70093
2024-01-09T13:41:03.483Z,536.30769
2024-01-09T13:46:05.026Z,566.22222
2024-01-09T13:51:49.627Z,530.66667
2024-01-09T13:56:55.612Z,530.66667
2024-01-09T14:01:57.230Z,536.30769
2024-01-09T14:06:58.884Z,542.05825
2024-01-09T14:12:00.350Z,525.13208
2024-01-09T14:17:02.081Z,519.70093
2024-01-09T14:22:03.662Z,479.65217
2024-01-09T14:27:05.102Z,479.65217
2024-01-09T14:32:06.793Z,509.13761
2024-01-09T14:37:09.783Z,351.94702
2024-01-09T14:42:12.323Z,417.84615
2024-01-09T14:47:14.005Z,321.91411
2024-01-09T14:52:15.750Z,414.22901
2024-01-09T14:57:17.276Z,448.91803
2024-01-09T15:02:18.949Z,484.35088
2024-01-09T15:07:20.702Z,509.13761
2024-01-09T15:12:22.100Z,498.95495
2024-01-09T15:17:23.622Z,489.13274
2024-01-09T15:22:25.171Z,461.64706
2024-01-09T15:27:26.606Z,461.64706
2024-01-09T15:32:28.112Z,470.49573
2024-01-09T15:37:29.679Z,448.91803
2024-01-09T15:42:31.137Z,453.09091
2024-01-09T15:47:32.774Z,475.03448
2024-01-09T15:52:34.310Z,509.13761
2024-01-09T15:57:35.693Z,509.13761
2024-01-09T16:02:37.092Z,494
2024-01-09T16:07:38.659Z,509.13761
2024-01-09T16:12:40.156Z,333.87342
2024-01-09T16:17:41.630Z,336.35669
2024-01-09T16:22:43.138Z,470.49573
2024-01-09T16:27:44.787Z,444.81301
2024-01-09T16:32:46.266Z,453.09091
2024-01-09T16:37:47.753Z,498.95495
2024-01-09T16:42:49.204Z,312.86228
2024-01-09T16:47:50.714Z,461.64706
2024-01-09T16:52:52.187Z,461.64706
2024-01-09T16:57:53.841Z,444.81301
2024-01-09T17:02:55.272Z,429.03937
2024-01-09T17:07:56.700Z,440.77419
2024-01-09T17:12:58.329Z,461.64706
2024-01-09T17:17:59.728Z,479.65217
2024-01-09T17:23:01.326Z,489.13274
2024-01-09T17:28:02.782Z,498.95495
2024-01-09T17:33:04.275Z,479.65217
2024-01-09T17:38:05.773Z,457.33333
2024-01-09T17:43:07.253Z,466.0339
2024-01-09T17:48:08.916Z,461.64706
2024-01-09T17:53:10.578Z,444.81301
2024-01-09T17:58:12.142Z,429.03937
2024-01-09T18:03:13.714Z,436.8
2024-01-09T18:08:15.309Z,421.51938
2024-01-09T18:13:16.769Z,425.25
2024-01-09T18:18:18.262Z,414.22901
2024-01-09T18:23:19.853Z,417.84615
2024-01-09T18:28:26.910Z,407.15789
2024-01-09T18:33:31.005Z,403.70149
2024-01-09T18:38:32.760Z,396.94118
2024-01-09T18:43:34.228Z,384
2024-01-09T18:48:35.689Z,393.63504
2024-01-09T18:53:37.513Z,387.16547
2024-01-09T18:58:38.972Z,380.87943
2024-01-09T19:03:40.471Z,380.87943
2024-01-09T19:08:42.162Z,371.77778
2024-01-09T19:13:43.613Z,374.76923
2024-01-09T19:18:45.167Z,368.82759
2024-01-09T19:23:46.652Z,387.16547
2024-01-09T19:28:48.039Z,393.63504
2024-01-09T19:33:49.521Z,377.80282
2024-01-09T19:38:51.018Z,384
2024-01-09T19:43:52.471Z,390.37681
2024-01-09T19:48:54.016Z,387.16547
2024-01-09T19:53:55.523Z,371.77778
2024-01-09T19:58:57.126Z,380.87943
2024-01-09T20:03:58.582Z,384
2024-01-09T20:09:00.001Z,380.87943
2024-01-09T20:14:01.859Z,384
2024-01-09T20:19:03.375Z,396.94118
2024-01-09T20:24:04.810Z,407.15789
2024-01-09T20:29:06.389Z,410.66667
2024-01-09T20:34:08.232Z,417.84615
2024-01-09T20:39:09.715Z,417.84615
2024-01-09T20:44:11.311Z,421.51938
2024-01-09T20:49:12.763Z,429.03937
2024-01-09T20:54:14.250Z,429.03937
2024-01-09T20:59:15.968Z,453.09091
2024-01-09T21:04:17.513Z,448.91803
2024-01-09T21:09:19.129Z,432.88889
2024-01-09T21:14:20.631Z,425.25
2024-01-09T21:19:22.307Z,421.51938
2024-01-09T21:24:23.816Z,410.66667
2024-01-09T21:29:25.408Z,417.84615
2024-01-09T21:34:27.120Z,429.03937
2024-01-09T21:39:28.523Z,429.03937
2024-01-09T21:44:30.075Z,425.25
2024-01-09T21:49:31.660Z,421.51938
2024-01-09T21:54:33.162Z,421.51938
2024-01-09T21:59:34.715Z,410.66667
2024-01-09T22:04:36.242Z,351.94702
2024-01-09T22:09:37.636Z,354.66667
2024-01-09T22:14:39.117Z,354.66667
2024-01-09T22:19:40.587Z,278.78261
2024-01-09T22:24:42.088Z,374.76923
2024-01-09T22:29:43.600Z,414.22901
2024-01-09T22:34:44.995Z,444.81301
2024-01-09T22:39:46.509Z,436.8
2024-01-09T22:44:48.115Z,448.91803
2024-01-09T22:49:49.622Z,498.95495
2024-01-09T22:54:51.194Z,519.70093
2024-01-09T22:59:52.658Z,525.13208
2024-01-09T23:04:54.093Z,519.70093
2024-01-09T23:09:55.577Z,530.66667
2024-01-09T23:14:57.032Z,542.05825
2024-01-09T23:19:58.511Z,530.66667
2024-01-09T23:24:59.973Z,553.90099
2024-01-09T23:30:01.573Z,504
2024-01-09T23:35:03.300Z,572.57143
2024-01-09T23:40:04.944Z,566.22222
2024-01-09T23:45:06.600Z,572.57143
2024-01-09T23:50:08.080Z,572.57143
2024-01-09T23:55:09.698Z,560
